Time;durP1;ratioP1;P1;durP2;ratioP2;P2;SDS_P1;SDS_P2;PMS_P1;PMS_P2;Temp;Humidity;BMP_temperature;BMP_pressure;BME280_temperature;BME280_humidity;BME280_pressure;Samples;Min_cycle;Max_cycle;Signal;HPM_P1;HPM_P2
2021/12/16 00:03:18;;;;;;;1.00;0.90;;;8.30;99.90;;;;;;4951872;28;20509;-83
2021/12/16 00:06:07;;;;;;;0.80;0.60;;;8.20;99.90;;;;;;4949522;28;20930;-83
2021/12/16 00:11:01;;;;;;;1.33;1.23;;;8.30;99.90;;;;;;5045454;28;20552;-83
2021/12/16 00:34:53;;;;;;;1.00;0.73;;;8.20;99.90;;;;;;5046797;28;20225;-83
2021/12/16 00:37:19;;;;;;;0.80;0.60;;;8.20;99.90;;;;;;5041796;28;20462;-82
2021/12/16 00:39:45;;;;;;;0.80;0.60;;;8.20;99.90;;;;;;5044112;28;20195;-82
2021/12/16 00:42:31;;;;;;;1.57;1.47;;;8.20;99.90;;;;;;5043469;28;20639;-82
2021/12/16 00:49:52;;;;;;;0.80;0.60;;;8.20;99.90;;;;;;5040591;28;20508;-83
2021/12/16 00:55:34;;;;;;;1.07;0.97;;;8.20;99.90;;;;;;5044495;28;20990;-83
2021/12/16 00:58:00;;;;;;;0.80;0.60;;;8.20;99.90;;;;;;5043689;28;20437;-82
2021/12/16 01:00:29;;;;;;;0.80;0.70;;;8.30;99.90;;;;;;5039038;28;21205;-82
2021/12/16 01:03:10;;;;;;;5.63;3.87;;;8.30;99.90;;;;;;5044615;28;20214;-82
2021/12/16 01:08:25;;;;;;;0.80;0.60;;;8.20;99.90;;;;;;5039657;28;20476;-82
2021/12/16 01:41:30;;;;;;;0.80;0.60;;;8.30;99.90;;;;;;5029220;28;20195;-82
2021/12/16 01:45:37;;;;;;;0.80;0.60;;;8.40;99.90;;;;;;5046176;28;20488;-83
2021/12/16 01:49:29;;;;;;;1.27;1.07;;;8.40;99.90;;;;;;5044611;28;20471;-83
2021/12/16 01:57:18;;;;;;;0.80;0.60;;;8.40;99.90;;;;;;5036011;28;20927;-83
2021/12/16 01:59:48;;;;;;;1.00;0.90;;;8.50;99.90;;;;;;5035060;28;20945;-81
2021/12/16 02:02:35;;;;;;;0.80;0.60;;;8.40;99.90;;;;;;5045362;28;20769;-82
2021/12/16 02:08:12;;;;;;;1.97;1.77;;;8.50;99.90;;;;;;5043094;28;20460;-82
2021/12/16 02:10:42;;;;;;;0.90;0.70;;;8.50;99.90;;;;;;5050503;28;20433;-82
2021/12/16 02:29:39;;;;;;;0.80;0.73;;;8.50;99.90;;;;;;5051571;28;20491;-83
2021/12/16 02:35:24;;;;;;;0.80;0.67;;;8.50;99.90;;;;;;5013779;28;20803;-82
2021/12/16 02:37:48;;;;;;;3.10;0.90;;;8.50;99.90;;;;;;5044880;28;21016;-83
2021/12/16 02:40:17;;;;;;;0.80;0.60;;;8.50;99.90;;;;;;5031979;28;20441;-83
2021/12/16 02:48:33;;;;;;;0.80;0.60;;;8.50;99.90;;;;;;5049490;28;20924;-82
2021/12/16 02:51:07;;;;;;;0.80;0.70;;;8.50;99.90;;;;;;5047079;28;20436;-82
2021/12/16 02:53:34;;;;;;;0.80;0.60;;;8.50;99.90;;;;;;5047468;28;20468;-82
2021/12/16 02:56:00;;;;;;;1.33;1.23;;;8.50;99.90;;;;;;5038046;28;20429;-82
2021/12/16 02:58:26;;;;;;;0.80;0.60;;;8.50;99.90;;;;;;5047799;28;20499;-83
2021/12/16 03:01:01;;;;;;;0.80;0.60;;;8.50;99.90;;;;;;5048292;28;21004;-82
2021/12/16 03:03:28;;;;;;;0.80;0.60;;;8.50;99.90;;;;;;5049859;28;20808;-82
2021/12/16 03:05:55;;;;;;;0.80;0.60;;;8.50;99.90;;;;;;5035593;28;20466;-82
2021/12/16 03:08:21;;;;;;;1.33;0.70;;;8.50;99.90;;;;;;5051651;28;20524;-82
2021/12/16 03:13:29;;;;;;;0.80;0.60;;;8.50;99.90;;;;;;5045152;28;20244;-83
2021/12/16 03:16:08;;;;;;;0.93;0.83;;;8.50;99.90;;;;;;5046538;28;20472;-82
2021/12/16 03:19:07;;;;;;;0.80;0.60;;;8.50;99.90;;;;;;5049659;28;20473;-83
2021/12/16 03:21:40;;;;;;;1.00;0.90;;;8.50;99.90;;;;;;5046294;28;21003;-83
2021/12/16 03:37:11;;;;;;;0.80;0.60;;;8.50;99.90;;;;;;5040396;28;20187;-83
2021/12/16 03:39:46;;;;;;;0.80;0.60;;;8.60;99.90;;;;;;5041878;28;20464;-82
2021/12/16 03:42:14;;;;;;;0.80;0.60;;;8.60;99.90;;;;;;5046708;28;20459;-82
2021/12/16 03:44:54;;;;;;;0.80;0.60;;;8.50;99.90;;;;;;5044192;28;20488;-81
2021/12/16 03:47:29;;;;;;;0.80;0.60;;;8.50;99.90;;;;;;5036699;28;20563;-82
2021/12/16 03:49:55;;;;;;;0.80;0.70;;;8.50;99.90;;;;;;5043610;28;20475;-83
2021/12/16 03:52:21;;;;;;;0.80;0.60;;;8.60;99.90;;;;;;5043106;28;20453;-83
2021/12/16 03:54:50;;;;;;;0.80;0.70;;;8.50;99.90;;;;;;5045358;28;20566;-82
2021/12/16 03:57:19;;;;;;;0.80;0.80;;;8.50;99.90;;;;;;5041105;28;20437;-82
2021/12/16 03:59:46;;;;;;;0.80;0.60;;;8.50;99.90;;;;;;5047827;28;20539;-82
2021/12/16 04:02:25;;;;;;;0.80;0.60;;;8.50;99.90;;;;;;5049034;28;20809;-82
2021/12/16 04:04:51;;;;;;;0.80;0.57;;;8.50;99.90;;;;;;5023086;28;20823;-82
2021/12/16 04:07:19;;;;;;;0.80;0.70;;;8.50;99.90;;;;;;5044667;28;20491;-82
2021/12/16 04:09:47;;;;;;;1.10;0.80;;;8.50;99.90;;;;;;5036667;28;20438;-82
2021/12/16 04:12:19;;;;;;;0.80;0.60;;;8.50;99.90;;;;;;5046469;28;20452;-82
2021/12/16 04:14:45;;;;;;;0.80;0.60;;;8.50;99.90;;;;;;5038729;28;20947;-82
2021/12/16 04:17:12;;;;;;;0.80;0.60;;;8.60;99.90;;;;;;5049918;28;20561;-81
2021/12/16 04:19:38;;;;;;;0.80;0.60;;;8.50;99.90;;;;;;5029617;28;20452;-83
2021/12/16 04:22:09;;;;;;;0.80;0.60;;;8.50;99.90;;;;;;5050007;28;20433;-83
2021/12/16 04:24:35;;;;;;;0.80;0.60;;;8.50;99.90;;;;;;5034879;28;20276;-82
2021/12/16 04:27:03;;;;;;;0.80;0.60;;;8.50;99.90;;;;;;5044458;28;20480;-82
2021/12/16 04:29:29;;;;;;;0.80;0.60;;;8.50;99.90;;;;;;5045857;28;20540;-82
2021/12/16 04:31:56;;;;;;;0.80;0.60;;;8.50;99.90;;;;;;5046051;28;20522;-82
2021/12/16 04:34:22;;;;;;;0.80;0.50;;;8.50;99.90;;;;;;5047884;28;20453;-83
2021/12/16 04:36:48;;;;;;;0.80;0.60;;;8.50;99.90;;;;;;5042876;28;20798;-82
2021/12/16 04:39:21;;;;;;;0.80;0.60;;;8.50;99.90;;;;;;5039354;28;20445;-83
2021/12/16 04:41:47;;;;;;;0.80;0.60;;;8.50;99.90;;;;;;5045629;28;20433;-82
2021/12/16 04:44:15;;;;;;;0.80;0.60;;;8.50;99.90;;;;;;5043870;28;20538;-82
2021/12/16 04:46:42;;;;;;;0.80;0.60;;;8.50;99.90;;;;;;5048119;28;20848;-82
2021/12/16 04:49:10;;;;;;;0.80;0.63;;;8.50;99.90;;;;;;5044451;28;20437;-82
2021/12/16 04:51:39;;;;;;;0.80;0.60;;;8.50;99.90;;;;;;5048289;28;20444;-83
2021/12/16 04:54:06;;;;;;;0.80;0.60;;;8.50;99.90;;;;;;5034773;28;20979;-83
2021/12/16 04:56:32;;;;;;;0.80;0.60;;;8.50;99.90;;;;;;5048944;28;20524;-82
2021/12/16 04:59:00;;;;;;;1.37;1.03;;;8.50;99.90;;;;;;5031534;28;20424;-82
2021/12/16 05:01:25;;;;;;;1.00;0.70;;;8.50;99.90;;;;;;5041694;28;20449;-82
2021/12/16 05:03:52;;;;;;;0.80;0.60;;;8.60;99.90;;;;;;5048203;28;20474;-82
2021/12/16 05:06:18;;;;;;;0.80;0.60;;;8.60;99.90;;;;;;5047352;28;20550;-82
2021/12/16 05:08:43;;;;;;;0.80;0.60;;;8.50;99.90;;;;;;5030607;28;20476;-81
2021/12/16 05:11:13;;;;;;;0.80;0.60;;;8.60;99.90;;;;;;5045955;28;20433;-82
2021/12/16 05:13:39;;;;;;;0.80;0.60;;;8.50;99.90;;;;;;5030152;28;20562;-82
2021/12/16 05:16:05;;;;;;;0.90;0.60;;;8.60;99.90;;;;;;5045902;28;20548;-82
2021/12/16 05:18:35;;;;;;;0.80;0.60;;;8.50;99.90;;;;;;5047357;28;20441;-83
2021/12/16 05:21:05;;;;;;;0.80;0.60;;;8.60;99.90;;;;;;5048053;28;20439;-82
2021/12/16 05:26:18;;;;;;;0.80;0.60;;;8.50;99.90;;;;;;5047532;28;20490;-81
2021/12/16 05:28:56;;;;;;;0.80;0.60;;;8.60;99.90;;;;;;5029056;28;20815;-82
2021/12/16 05:31:24;;;;;;;0.80;0.60;;;8.60;99.90;;;;;;5043267;28;20983;-82
2021/12/16 05:33:52;;;;;;;0.80;0.60;;;8.60;99.90;;;;;;5047399;28;20789;-82
2021/12/16 05:36:17;;;;;;;0.80;0.60;;;8.60;99.90;;;;;;5040671;28;20449;-82
2021/12/16 05:38:43;;;;;;;0.80;0.53;;;8.60;99.90;;;;;;5042510;28;20503;-82
2021/12/16 05:41:12;;;;;;;1.30;0.80;;;8.60;99.90;;;;;;5027131;28;20239;-81
2021/12/16 05:43:38;;;;;;;0.80;0.60;;;8.60;99.90;;;;;;5049840;28;20257;-82
2021/12/16 05:46:05;;;;;;;0.80;0.60;;;8.60;99.90;;;;;;5025777;28;20434;-82
2021/12/16 05:48:33;;;;;;;0.90;0.80;;;8.60;99.90;;;;;;5040842;28;20434;-82
2021/12/16 05:51:05;;;;;;;0.80;0.60;;;8.60;99.90;;;;;;5050672;28;20429;-82
2021/12/16 05:53:31;;;;;;;1.30;1.10;;;8.60;99.90;;;;;;5052977;28;20504;-82
2021/12/16 05:55:58;;;;;;;1.67;0.87;;;8.60;99.90;;;;;;5049146;28;20456;-82
2021/12/16 05:58:24;;;;;;;0.80;0.60;;;8.60;99.90;;;;;;5037236;28;20803;-81
2021/12/16 06:00:57;;;;;;;0.80;0.60;;;8.60;99.90;;;;;;5041741;28;20529;-82
2021/12/16 06:03:23;;;;;;;0.80;0.53;;;8.60;99.90;;;;;;5043792;28;20469;-82
2021/12/16 06:05:51;;;;;;;0.80;0.60;;;8.60;99.90;;;;;;5049789;28;20437;-82
2021/12/16 06:08:17;;;;;;;2.17;1.00;;;8.60;99.90;;;;;;5050047;28;20505;-83
2021/12/16 06:13:12;;;;;;;0.80;0.60;;;8.50;99.90;;;;;;5044972;28;20237;-82
2021/12/16 06:15:56;;;;;;;0.80;0.60;;;8.50;99.90;;;;;;5044223;28;20469;-82
2021/12/16 06:26:49;;;;;;;0.80;0.60;;;8.40;99.90;;;;;;5049760;28;20520;-83
2021/12/16 06:29:14;;;;;;;0.90;0.70;;;8.40;99.90;;;;;;5029034;28;20452;-82
2021/12/16 06:31:40;;;;;;;1.00;0.90;;;8.30;99.90;;;;;;5045696;28;20936;-82
2021/12/16 06:34:05;;;;;;;0.80;0.60;;;8.30;99.90;;;;;;5032580;28;20181;-82
2021/12/16 06:36:31;;;;;;;1.00;0.87;;;8.30;99.90;;;;;;5034475;28;20546;-83
2021/12/16 06:38:57;;;;;;;0.80;0.60;;;8.30;99.90;;;;;;5051405;28;20249;-83
2021/12/16 06:41:23;;;;;;;1.07;0.97;;;8.20;99.90;;;;;;5050690;28;20222;-83
2021/12/16 06:43:52;;;;;;;0.80;0.60;;;8.10;99.90;;;;;;5037935;28;20579;-82
2021/12/16 06:46:21;;;;;;;0.80;0.70;;;8.00;99.90;;;;;;5045285;28;20457;-83
2021/12/16 06:48:54;;;;;;;0.80;0.70;;;7.90;99.90;;;;;;5047108;28;20441;-82
2021/12/16 06:51:33;;;;;;;0.80;0.60;;;7.90;99.90;;;;;;5033537;28;20437;-82
2021/12/16 06:54:06;;;;;;;0.80;0.63;;;7.90;99.90;;;;;;5049712;28;20463;-83
2021/12/16 06:56:46;;;;;;;0.80;0.60;;;7.90;99.90;;;;;;5021623;28;20847;-82
2021/12/16 06:59:23;;;;;;;0.80;0.60;;;7.90;99.90;;;;;;5019596;28;20442;-82
2021/12/16 07:02:03;;;;;;;0.80;0.60;;;8.00;99.90;;;;;;5050007;28;20486;-82
2021/12/16 07:04:29;;;;;;;1.00;0.90;;;8.00;99.90;;;;;;5047506;28;20516;-82
2021/12/16 07:06:55;;;;;;;0.80;0.60;;;8.10;99.90;;;;;;5049178;28;20476;-83
2021/12/16 07:09:21;;;;;;;0.80;0.60;;;8.10;99.90;;;;;;5051162;28;20526;-82
2021/12/16 07:11:52;;;;;;;0.80;0.60;;;8.00;99.90;;;;;;5051104;28;20221;-82
2021/12/16 07:14:19;;;;;;;1.23;0.90;;;8.00;99.90;;;;;;5033105;28;20441;-82
2021/12/16 07:16:51;;;;;;;2.03;1.93;;;8.10;99.90;;;;;;5032646;28;20969;-82
2021/12/16 07:19:16;;;;;;;0.80;0.70;;;8.10;99.90;;;;;;5030980;28;20429;-82
2021/12/16 07:21:43;;;;;;;0.80;0.60;;;8.00;99.90;;;;;;5031135;28;21042;-82
2021/12/16 07:24:14;;;;;;;0.80;0.80;;;8.00;99.90;;;;;;5033166;28;20602;-82
2021/12/16 07:26:40;;;;;;;0.80;0.60;;;8.00;99.90;;;;;;5049119;28;20974;-81
2021/12/16 07:29:08;;;;;;;0.80;0.60;;;8.00;99.90;;;;;;5045080;28;20531;-81
2021/12/16 07:31:36;;;;;;;0.80;0.60;;;7.90;99.90;;;;;;5043945;28;20187;-78
2021/12/16 07:34:03;;;;;;;2.13;0.80;;;7.80;99.90;;;;;;5029761;28;20451;-82
2021/12/16 07:36:30;;;;;;;0.80;0.60;;;7.80;99.90;;;;;;5048774;28;20444;-83
2021/12/16 07:38:56;;;;;;;0.80;0.60;;;7.80;99.90;;;;;;5048621;28;20441;-82
2021/12/16 07:41:25;;;;;;;0.80;0.60;;;7.80;99.90;;;;;;5050363;28;20527;-83
2021/12/16 07:46:21;;;;;;;4.20;1.00;;;7.70;99.90;;;;;;5045830;28;20971;-82
2021/12/16 07:48:46;;;;;;;1.00;0.90;;;7.70;99.90;;;;;;5048934;28;20445;-82
2021/12/16 07:51:12;;;;;;;1.97;1.87;;;7.60;99.90;;;;;;5044900;28;20448;-84
2021/12/16 07:53:39;;;;;;;0.80;0.60;;;7.60;99.90;;;;;;5048131;28;20190;-83
2021/12/16 07:56:07;;;;;;;1.40;1.27;;;7.70;99.90;;;;;;5040769;28;20174;-83
2021/12/16 07:58:33;;;;;;;0.80;0.60;;;7.60;99.90;;;;;;5028029;28;20445;-83
2021/12/16 08:01:00;;;;;;;0.80;0.60;;;7.70;99.90;;;;;;5028960;28;20496;-83
2021/12/16 08:03:34;;;;;;;1.00;0.67;;;7.60;99.90;;;;;;5028281;28;20948;-83
2021/12/16 08:06:00;;;;;;;1.00;0.87;;;7.60;99.90;;;;;;5031884;28;20439;-83
2021/12/16 08:08:26;;;;;;;0.80;0.80;;;7.60;99.90;;;;;;5031830;28;20413;-83
2021/12/16 08:10:53;;;;;;;0.80;0.60;;;7.70;99.90;;;;;;5047168;28;20767;-83
2021/12/16 08:13:19;;;;;;;0.80;0.60;;;7.70;99.90;;;;;;5050349;28;20281;-82
2021/12/16 08:15:45;;;;;;;1.10;1.00;;;7.70;99.90;;;;;;5039415;28;20552;-83
2021/12/16 08:18:11;;;;;;;0.93;0.73;;;7.70;99.90;;;;;;5050386;28;20212;-83
2021/12/16 08:20:36;;;;;;;0.80;0.60;;;7.80;99.90;;;;;;5031421;28;20186;-83
2021/12/16 08:23:03;;;;;;;1.20;1.10;;;7.90;99.90;;;;;;5046275;28;20305;-83
2021/12/16 08:25:30;;;;;;;1.17;1.00;;;7.90;99.90;;;;;;5045993;28;20182;-82
2021/12/16 08:27:57;;;;;;;0.80;0.60;;;8.00;99.90;;;;;;5046299;28;20453;-83
2021/12/16 08:30:27;;;;;;;0.80;0.60;;;8.00;99.90;;;;;;5033949;28;20469;-82
2021/12/16 08:32:53;;;;;;;0.80;0.70;;;8.00;99.90;;;;;;5047543;28;20536;-83
2021/12/16 08:35:19;;;;;;;0.80;0.60;;;8.00;99.90;;;;;;5047659;28;21235;-82
2021/12/16 08:37:45;;;;;;;0.80;0.70;;;8.00;99.90;;;;;;5047505;28;20470;-82
2021/12/16 08:40:21;;;;;;;0.80;0.60;;;8.10;99.90;;;;;;5049799;28;20182;-82
2021/12/16 08:42:47;;;;;;;0.80;0.70;;;8.20;99.90;;;;;;5029664;28;20251;-82
2021/12/16 08:45:18;;;;;;;0.80;0.60;;;8.20;99.90;;;;;;5030215;28;20437;-82
2021/12/16 08:47:44;;;;;;;0.80;0.60;;;8.20;99.90;;;;;;5049865;28;20429;-82
2021/12/16 08:50:13;;;;;;;0.80;0.60;;;8.20;99.90;;;;;;5031802;28;20915;-81
2021/12/16 08:52:39;;;;;;;1.33;1.23;;;8.30;99.90;;;;;;5031988;28;20572;-82
2021/12/16 08:55:06;;;;;;;1.30;0.87;;;8.30;99.90;;;;;;5031875;28;20429;-81
2021/12/16 08:57:31;;;;;;;1.30;1.10;;;8.20;99.90;;;;;;5045220;28;20433;-82
2021/12/16 08:59:57;;;;;;;0.80;0.60;;;8.30;99.90;;;;;;5038354;28;20515;-82
2021/12/16 09:02:23;;;;;;;14.33;1.60;;;8.20;99.90;;;;;;5043727;28;20178;-82
2021/12/16 09:04:49;;;;;;;0.80;0.60;;;8.30;99.90;;;;;;5048831;28;20222;-79
2021/12/16 09:07:15;;;;;;;0.80;0.60;;;8.30;99.90;;;;;;5042963;28;20652;-83
2021/12/16 09:09:43;;;;;;;1.40;1.30;;;8.20;99.90;;;;;;5040735;28;20516;-82
2021/12/16 09:12:36;;;;;;;0.80;0.60;;;8.20;99.90;;;;;;5043345;28;20460;-82
2021/12/16 09:15:01;;;;;;;0.80;0.60;;;8.20;99.90;;;;;;5031680;28;20462;-82
2021/12/16 09:17:27;;;;;;;0.90;0.70;;;8.10;99.90;;;;;;5040353;28;20465;-83
2021/12/16 09:19:55;;;;;;;1.43;0.80;;;8.10;99.90;;;;;;5042287;28;20446;-84
2021/12/16 09:22:22;;;;;;;0.80;0.60;;;8.10;99.90;;;;;;5037296;28;20674;-82
2021/12/16 09:24:50;;;;;;;0.80;0.60;;;8.10;99.90;;;;;;5048431;28;20483;-82
2021/12/16 09:27:17;;;;;;;0.80;0.70;;;8.30;99.90;;;;;;5048939;28;20425;-82
2021/12/16 09:29:44;;;;;;;0.80;0.60;;;8.40;99.90;;;;;;5049168;28;20448;-82
2021/12/16 09:32:10;;;;;;;0.80;0.60;;;8.60;99.90;;;;;;5030207;28;20487;-82
2021/12/16 09:34:38;;;;;;;0.80;0.60;;;8.80;99.90;;;;;;5030204;28;20430;-81
2021/12/16 09:37:05;;;;;;;0.90;0.80;;;8.90;99.90;;;;;;5037856;28;20549;-82
2021/12/16 09:39:31;;;;;;;0.80;0.60;;;9.10;99.90;;;;;;5049608;28;20520;-82
2021/12/16 09:41:58;;;;;;;0.90;0.70;;;9.20;99.90;;;;;;5049252;28;20423;-81
2021/12/16 09:44:26;;;;;;;1.10;0.87;;;9.10;99.90;;;;;;5048691;28;20527;-81
2021/12/16 09:46:54;;;;;;;2.90;1.13;;;9.20;99.90;;;;;;5029780;28;20433;-82
2021/12/16 09:49:20;;;;;;;1.13;1.03;;;9.40;99.90;;;;;;5040224;28;20445;-82
2021/12/16 09:51:48;;;;;;;1.10;1.00;;;9.50;99.90;;;;;;5049047;28;20524;-82
2021/12/16 09:54:20;;;;;;;0.80;0.70;;;9.60;99.90;;;;;;5041688;28;20454;-82
2021/12/16 09:56:47;;;;;;;1.00;0.90;;;9.50;99.90;;;;;;5043324;28;20503;-81
2021/12/16 09:59:15;;;;;;;0.80;0.70;;;9.40;99.90;;;;;;5049219;28;20440;-82
2021/12/16 10:01:44;;;;;;;1.07;0.97;;;9.10;99.90;;;;;;5025167;28;20518;-82
2021/12/16 10:04:15;;;;;;;1.10;1.00;;;9.20;99.90;;;;;;5047636;28;20495;-81
2021/12/16 10:06:42;;;;;;;0.80;0.60;;;9.30;99.90;;;;;;5045436;28;20433;-82
2021/12/16 10:09:10;;;;;;;0.80;0.60;;;9.20;99.90;;;;;;5045999;28;20453;-81
2021/12/16 10:11:40;;;;;;;0.80;0.70;;;9.30;99.90;;;;;;5047639;28;20477;-81
2021/12/16 10:19:24;;;;;;;3.33;1.10;;;9.40;99.90;;;;;;5049143;28;20786;-81
2021/12/16 10:21:50;;;;;;;0.80;0.53;;;9.40;99.90;;;;;;5037808;28;20442;-81
2021/12/16 10:24:28;;;;;;;0.93;0.77;;;9.40;99.90;;;;;;5042076;28;20504;-81
2021/12/16 10:27:08;;;;;;;3.27;1.20;;;9.50;99.90;;;;;;5044343;28;20438;-81
2021/12/16 10:29:49;;;;;;;1.40;1.17;;;9.40;99.90;;;;;;5048366;28;21331;-82
2021/12/16 10:32:30;;;;;;;0.80;0.60;;;9.30;99.90;;;;;;5051997;28;20516;-82
2021/12/16 10:34:59;;;;;;;0.80;0.60;;;9.40;99.90;;;;;;5032646;28;21006;-81
2021/12/16 10:37:37;;;;;;;7.50;1.10;;;9.40;99.90;;;;;;5024334;28;20862;-82
2021/12/16 10:40:22;;;;;;;0.80;0.60;;;9.50;99.90;;;;;;5052296;28;20483;-82
2021/12/16 10:42:48;;;;;;;0.80;0.60;;;9.20;99.90;;;;;;5046610;28;20967;-82
2021/12/16 10:45:36;;;;;;;0.90;0.60;;;9.20;99.90;;;;;;5045380;28;20445;-82
2021/12/16 10:48:11;;;;;;;0.80;0.60;;;9.30;99.90;;;;;;5051092;28;21163;-81
2021/12/16 10:51:18;;;;;;;1.47;0.80;;;9.60;99.90;;;;;;5034350;28;20798;-82
2021/12/16 10:54:10;;;;;;;0.80;0.50;;;9.80;99.90;;;;;;5049091;28;21080;-81
2021/12/16 10:56:41;;;;;;;0.90;0.60;;;9.70;99.90;;;;;;5038848;28;21224;-82
2021/12/16 10:59:23;;;;;;;2.27;1.60;;;9.70;99.90;;;;;;5049655;28;20496;-82
2021/12/16 11:01:56;;;;;;;0.90;0.60;;;9.80;99.90;;;;;;5045834;28;20441;-82
2021/12/16 11:04:24;;;;;;;0.90;0.50;;;10.10;99.90;;;;;;5022207;28;20477;-82
2021/12/16 11:06:57;;;;;;;0.90;0.50;;;9.90;99.90;;;;;;5040136;28;20443;-82
2021/12/16 11:09:34;;;;;;;0.90;0.80;;;9.60;99.90;;;;;;5032289;28;20834;-82
2021/12/16 11:12:07;;;;;;;0.80;0.60;;;9.40;99.90;;;;;;5030807;28;20944;-82
2021/12/16 11:14:33;;;;;;;1.30;0.90;;;9.40;99.90;;;;;;5028394;28;20446;-80
2021/12/16 11:17:02;;;;;;;0.80;0.50;;;9.40;99.90;;;;;;5042309;28;20795;-80
2021/12/16 11:19:54;;;;;;;0.80;0.60;;;9.60;99.90;;;;;;5043740;28;20194;-79
2021/12/16 11:22:25;;;;;;;0.80;0.60;;;9.60;99.90;;;;;;5044631;28;20488;-79
2021/12/16 11:24:52;;;;;;;2.70;1.63;;;9.50;99.90;;;;;;5044637;28;20504;-80
2021/12/16 11:27:34;;;;;;;0.80;0.50;;;9.90;99.90;;;;;;5045317;28;20443;-80
2021/12/16 11:30:24;;;;;;;1.50;0.87;;;10.20;99.90;;;;;;5048252;28;21166;-79
2021/12/16 11:32:52;;;;;;;0.80;0.60;;;10.00;99.90;;;;;;5037740;28;20437;-80
2021/12/16 11:35:27;;;;;;;0.87;0.50;;;10.10;99.90;;;;;;5046357;28;20456;-79
2021/12/16 11:37:53;;;;;;;0.90;0.50;;;10.00;99.90;;;;;;5043763;28;20532;-81
2021/12/16 11:40:19;;;;;;;0.90;0.50;;;10.20;99.90;;;;;;5040304;28;20856;-80
2021/12/16 11:42:58;;;;;;;0.80;0.50;;;10.10;99.90;;;;;;5049502;28;20610;-79
2021/12/16 11:45:50;;;;;;;0.90;0.60;;;10.10;99.90;;;;;;5037470;28;20441;-80
2021/12/16 11:48:28;;;;;;;0.80;0.50;;;10.30;99.90;;;;;;5041591;28;20433;-81
2021/12/16 11:51:06;;;;;;;0.80;0.50;;;10.40;99.90;;;;;;5048950;28;20924;-79
2021/12/16 11:53:38;;;;;;;0.80;0.50;;;10.30;99.90;;;;;;5046318;28;20491;-79
2021/12/16 11:56:04;;;;;;;0.90;0.70;;;10.40;99.90;;;;;;5040733;28;20771;-79
2021/12/16 11:58:30;;;;;;;1.77;0.70;;;10.30;99.90;;;;;;5044910;28;20490;-79
2021/12/16 12:01:09;;;;;;;0.90;0.53;;;10.30;99.90;;;;;;5030849;28;20440;-79
2021/12/16 12:03:34;;;;;;;0.90;0.50;;;10.50;99.90;;;;;;5043584;28;20911;-80
2021/12/16 12:06:00;;;;;;;0.80;0.50;;;10.50;99.90;;;;;;5029759;28;20441;-82
2021/12/16 12:08:30;;;;;;;0.80;0.50;;;10.80;99.90;;;;;;5047707;28;20179;-82
2021/12/16 12:11:06;;;;;;;3.60;0.80;;;11.00;99.90;;;;;;5035391;28;20183;-82
2021/12/16 12:13:41;;;;;;;0.80;0.50;;;10.70;99.90;;;;;;5045341;28;20682;-79
2021/12/16 12:16:09;;;;;;;0.80;0.50;;;10.20;99.90;;;;;;5030253;28;20476;-80
2021/12/16 12:18:40;;;;;;;1.07;0.90;;;10.40;99.90;;;;;;5044936;28;20437;-79
2021/12/16 12:21:16;;;;;;;0.80;0.50;;;10.50;99.90;;;;;;5042336;28;20875;-80
2021/12/16 12:23:43;;;;;;;0.83;0.53;;;10.80;99.90;;;;;;5041034;28;20558;-82
2021/12/16 12:26:16;;;;;;;0.80;0.50;;;10.80;99.90;;;;;;5031834;28;20429;-82
2021/12/16 12:28:51;;;;;;;0.83;0.50;;;11.00;99.90;;;;;;5040264;28;20886;-83
2021/12/16 12:31:24;;;;;;;0.83;0.50;;;11.20;99.90;;;;;;5041605;28;20455;-83
2021/12/16 12:33:49;;;;;;;0.90;0.57;;;11.50;99.90;;;;;;5049721;28;20481;-81
2021/12/16 12:36:18;;;;;;;1.23;0.80;;;11.20;99.90;;;;;;5027719;28;21011;-82
2021/12/16 12:38:44;;;;;;;0.90;0.60;;;11.40;99.90;;;;;;5045776;28;20533;-81
2021/12/16 12:41:09;;;;;;;0.80;0.50;;;11.70;99.90;;;;;;5043774;28;20556;-81
2021/12/16 12:43:37;;;;;;;0.90;0.50;;;11.90;99.90;;;;;;5045198;28;20282;-81
2021/12/16 12:46:06;;;;;;;1.53;1.17;;;11.70;99.90;;;;;;5027456;28;20206;-81
2021/12/16 12:48:34;;;;;;;0.80;0.50;;;11.80;99.90;;;;;;5027307;28;20469;-80
2021/12/16 12:51:01;;;;;;;0.80;0.50;;;11.90;99.90;;;;;;5043573;28;20451;-80
2021/12/16 12:53:33;;;;;;;0.90;0.50;;;11.90;99.90;;;;;;5042082;28;20429;-80
2021/12/16 12:56:10;;;;;;;1.10;0.80;;;12.20;99.90;;;;;;5044299;28;20467;-80
2021/12/16 12:58:48;;;;;;;0.90;0.53;;;12.40;99.90;;;;;;5019715;28;20786;-79
2021/12/16 13:01:14;;;;;;;0.90;0.50;;;12.50;99.90;;;;;;5044714;28;20433;-80
2021/12/16 13:03:41;;;;;;;0.90;0.50;;;12.40;99.90;;;;;;5038688;28;20473;-80
2021/12/16 13:06:13;;;;;;;0.87;0.50;;;12.60;99.90;;;;;;5045754;28;20189;-80
2021/12/16 13:08:42;;;;;;;0.83;0.50;;;12.70;99.90;;;;;;5023943;28;20855;-79
2021/12/16 13:11:26;;;;;;;0.90;0.60;;;13.00;99.90;;;;;;5049089;28;20445;-81
2021/12/16 13:14:13;;;;;;;0.90;0.50;;;13.00;99.90;;;;;;5043599;28;20984;-81
2021/12/16 13:26:02;;;;;;;0.80;0.50;;;12.80;99.90;;;;;;5040640;28;20504;-81
2021/12/16 13:27:57;;;;;;;0.90;0.60;;;12.60;99.90;;;;;;5030408;28;20429;-81
2021/12/16 13:30:30;;;;;;;0.80;0.50;;;12.50;99.90;;;;;;5041371;28;20444;-80
2021/12/16 13:33:19;;;;;;;0.80;0.50;;;11.80;99.90;;;;;;5040567;28;20426;-81
2021/12/16 13:35:49;;;;;;;0.90;0.50;;;11.50;99.90;;;;;;5043117;28;20548;-81
2021/12/16 13:38:18;;;;;;;0.90;0.53;;;11.30;99.90;;;;;;5040322;28;20450;-81
2021/12/16 13:40:47;;;;;;;0.90;0.50;;;10.70;99.90;;;;;;5040034;28;20498;-80
2021/12/16 13:43:23;;;;;;;0.90;0.60;;;10.50;99.90;;;;;;5041794;28;20488;-80
2021/12/16 13:46:31;;;;;;;1.60;1.33;;;10.20;99.90;;;;;;5026664;28;20449;-80
2021/12/16 14:01:37;;;;;;;0.90;0.60;;;8.70;99.90;;;;;;5039813;28;20804;-80
2021/12/16 14:06:54;;;;;;;1.20;1.10;;;8.50;99.90;;;;;;5047754;28;20437;-81
2021/12/16 14:09:27;;;;;;;0.90;0.80;;;8.50;99.90;;;;;;5054153;28;20425;-85
2021/12/16 14:15:17;;;;;;;0.90;0.60;;;8.30;99.90;;;;;;5038174;28;20478;-86
2021/12/16 14:17:56;;;;;;;0.90;0.60;;;8.20;99.90;;;;;;5038465;28;21066;-86
2021/12/16 14:23:33;;;;;;;1.40;0.97;;;7.90;99.90;;;;;;5044157;28;20480;-86
2021/12/16 14:26:34;;;;;;;1.37;1.27;;;7.90;99.90;;;;;;5053401;28;20433;-85
2021/12/16 14:32:27;;;;;;;0.80;0.60;;;7.90;99.90;;;;;;5053077;28;20451;-85
2021/12/16 14:37:22;;;;;;;1.47;1.37;;;7.80;99.90;;;;;;5053526;28;20413;-86
2021/12/16 14:40:15;;;;;;;0.80;0.60;;;7.80;99.90;;;;;;5034132;28;20440;-85
2021/12/16 14:43:03;;;;;;;0.80;0.60;;;7.80;99.90;;;;;;5052479;28;20429;-81
2021/12/16 14:51:00;;;;;;;0.80;0.60;;;7.90;99.90;;;;;;5051160;28;20441;-83
2021/12/16 14:53:48;;;;;;;1.03;0.93;;;7.90;99.90;;;;;;5049674;28;20433;-82
2021/12/16 14:56:24;;;;;;;0.80;0.60;;;7.90;99.90;;;;;;5051315;28;20956;-82
2021/12/16 14:58:54;;;;;;;0.80;0.60;;;7.90;99.90;;;;;;5051687;28;20837;-84
2021/12/16 15:01:24;;;;;;;1.50;0.80;;;7.80;99.90;;;;;;5048862;28;20445;-83
2021/12/16 15:03:51;;;;;;;0.90;0.80;;;7.80;99.90;;;;;;5019949;28;20538;-84
2021/12/16 15:06:26;;;;;;;0.80;0.73;;;7.80;99.90;;;;;;5048288;28;20966;-83
2021/12/16 15:09:06;;;;;;;0.80;0.60;;;7.70;99.90;;;;;;5050366;28;20523;-83
2021/12/16 15:11:45;;;;;;;0.80;0.60;;;7.90;99.90;;;;;;5046931;28;20894;-83
2021/12/16 15:14:30;;;;;;;0.80;0.60;;;7.70;99.90;;;;;;5051823;28;20524;-82
2021/12/16 15:17:09;;;;;;;1.20;1.10;;;7.80;99.90;;;;;;5051275;28;20465;-83
2021/12/16 15:36:45;;;;;;;0.80;0.60;;;7.90;99.90;;;;;;5044858;28;20464;-82
2021/12/16 15:39:39;;;;;;;0.80;0.60;;;7.80;99.90;;;;;;5038742;28;20436;-83
2021/12/16 15:44:56;;;;;;;0.80;0.60;;;7.60;99.90;;;;;;5051805;28;20519;-84
2021/12/16 15:47:23;;;;;;;0.80;0.70;;;7.50;99.90;;;;;;5029176;28;20811;-82
2021/12/16 15:49:49;;;;;;;0.80;0.60;;;7.60;99.90;;;;;;5045651;28;20441;-83
2021/12/16 15:52:16;;;;;;;1.00;0.90;;;7.60;99.90;;;;;;5049355;28;20490;-82
2021/12/16 15:54:47;;;;;;;0.80;0.60;;;7.50;99.90;;;;;;5030164;28;20491;-82
2021/12/16 15:57:15;;;;;;;0.80;0.70;;;7.60;99.90;;;;;;5029956;28;20448;-86
2021/12/16 15:59:44;;;;;;;1.17;1.07;;;7.60;99.90;;;;;;5045389;28;20491;-86
2021/12/16 16:02:11;;;;;;;3.63;1.10;;;7.60;99.90;;;;;;5047103;28;20449;-86
2021/12/16 16:04:37;;;;;;;0.80;0.60;;;7.60;99.90;;;;;;5032110;28;20531;-87
2021/12/16 16:07:10;;;;;;;0.80;0.70;;;7.50;99.90;;;;;;5031947;28;20528;-85
2021/12/16 16:09:50;;;;;;;0.80;0.60;;;7.40;99.90;;;;;;5030087;28;20835;-85
2021/12/16 16:12:19;;;;;;;0.80;0.60;;;7.50;99.90;;;;;;5024967;28;20455;-86
2021/12/16 16:14:49;;;;;;;2.77;1.97;;;7.50;99.90;;;;;;5022666;28;20449;-85
2021/12/16 16:17:18;;;;;;;0.80;0.60;;;7.40;99.90;;;;;;5037952;28;20469;-85
2021/12/16 16:19:47;;;;;;;0.80;0.60;;;7.50;99.90;;;;;;5045534;28;20815;-85
2021/12/16 16:22:13;;;;;;;0.80;0.60;;;7.40;99.90;;;;;;5048127;28;20579;-84
2021/12/16 16:24:43;;;;;;;0.80;0.60;;;7.50;99.90;;;;;;5024863;28;21048;-84
2021/12/16 16:27:19;;;;;;;1.57;1.47;;;7.60;99.90;;;;;;5027340;28;20187;-86
2021/12/16 16:29:49;;;;;;;1.10;1.00;;;7.50;99.90;;;;;;5044909;28;20540;-86
2021/12/16 16:32:15;;;;;;;0.80;0.60;;;7.40;99.90;;;;;;5041046;28;20448;-86
2021/12/16 16:34:43;;;;;;;0.80;0.60;;;7.40;99.90;;;;;;5048636;28;20438;-87
2021/12/16 16:37:10;;;;;;;0.80;0.60;;;7.40;99.90;;;;;;5037827;28;20430;-85